sensor_id;sensor_type;location;lat;lon;timestamp;P1;durP1;ratioP1;P2;durP2;ratioP2
41952;SDS011;63613;28.200;112.870;2024-02-26T00:02:24;34.97;;;24.33;;
41952;SDS011;63613;28.200;112.870;2024-02-26T00:04:52;34.22;;;24.10;;
41952;SDS011;63613;28.200;112.870;2024-02-26T00:07:21;32.75;;;23.05;;
41952;SDS011;63613;28.200;112.870;2024-02-26T00:09:50;31.20;;;23.17;;
41952;SDS011;63613;28.200;112.870;2024-02-26T00:12:19;32.50;;;23.55;;
41952;SDS011;63613;28.200;112.870;2024-02-26T00:14:48;32.70;;;23.88;;
41952;SDS011;63613;28.200;112.870;2024-02-26T00:17:18;33.00;;;24.33;;
41952;SDS011;63613;28.200;112.870;2024-02-26T00:19:50;32.03;;;24.38;;
41952;SDS011;63613;28.200;112.870;2024-02-26T00:22:19;31.63;;;23.35;;
41952;SDS011;63613;28.200;112.870;2024-02-26T00:24:48;33.08;;;23.65;;
41952;SDS011;63613;28.200;112.870;2024-02-26T00:27:18;32.03;;;23.50;;
41952;SDS011;63613;28.200;112.870;2024-02-26T00:29:47;33.50;;;24.77;;
41952;SDS011;63613;28.200;112.870;2024-02-26T00:32:15;32.70;;;25.33;;
41952;SDS011;63613;28.200;112.870;2024-02-26T00:34:44;30.83;;;23.65;;
41952;SDS011;63613;28.200;112.870;2024-02-26T00:37:13;33.22;;;23.63;;
41952;SDS011;63613;28.200;112.870;2024-02-26T00:39:42;32.10;;;24.35;;
41952;SDS011;63613;28.200;112.870;2024-02-26T00:42:12;32.38;;;24.20;;
41952;SDS011;63613;28.200;112.870;2024-02-26T00:44:41;32.65;;;24.70;;
41952;SDS011;63613;28.200;112.870;2024-02-26T00:47:09;32.50;;;23.17;;
41952;SDS011;63613;28.200;112.870;2024-02-26T00:49:40;31.85;;;21.10;;
41952;SDS011;63613;28.200;112.870;2024-02-26T00:52:09;26.75;;;18.90;;
41952;SDS011;63613;28.200;112.870;2024-02-26T00:54:37;26.58;;;19.13;;
41952;SDS011;63613;28.200;112.870;2024-02-26T00:57:06;27.80;;;19.27;;
41952;SDS011;63613;28.200;112.870;2024-02-26T00:59:35;25.77;;;19.67;;
41952;SDS011;63613;28.200;112.870;2024-02-26T01:02:04;27.10;;;20.10;;
41952;SDS011;63613;28.200;112.870;2024-02-26T01:04:33;30.73;;;21.65;;
41952;SDS011;63613;28.200;112.870;2024-02-26T01:07:02;31.38;;;21.45;;
41952;SDS011;63613;28.200;112.870;2024-02-26T01:09:31;30.70;;;23.05;;
41952;SDS011;63613;28.200;112.870;2024-02-26T01:12:00;30.48;;;22.80;;
41952;SDS011;63613;28.200;112.870;2024-02-26T01:14:30;34.33;;;25.70;;
41952;SDS011;63613;28.200;112.870;2024-02-26T01:16:59;34.92;;;25.35;;
41952;SDS011;63613;28.200;112.870;2024-02-26T01:19:28;36.70;;;26.88;;
41952;SDS011;63613;28.200;112.870;2024-02-26T01:21:57;36.00;;;25.77;;
41952;SDS011;63613;28.200;112.870;2024-02-26T01:24:26;36.13;;;27.15;;
41952;SDS011;63613;28.200;112.870;2024-02-26T01:26:55;35.47;;;26.30;;
41952;SDS011;63613;28.200;112.870;2024-02-26T01:29:24;36.75;;;26.80;;
41952;SDS011;63613;28.200;112.870;2024-02-26T01:31:53;38.35;;;28.38;;
41952;SDS011;63613;28.200;112.870;2024-02-26T01:34:21;36.70;;;26.30;;
41952;SDS011;63613;28.200;112.870;2024-02-26T01:36:50;39.40;;;27.25;;
41952;SDS011;63613;28.200;112.870;2024-02-26T01:39:20;35.33;;;26.83;;
41952;SDS011;63613;28.200;112.870;2024-02-26T01:41:49;40.10;;;27.55;;
41952;SDS011;63613;28.200;112.870;2024-02-26T01:44:17;38.47;;;27.90;;
41952;SDS011;63613;28.200;112.870;2024-02-26T01:46:46;39.83;;;28.63;;
41952;SDS011;63613;28.200;112.870;2024-02-26T01:49:16;43.33;;;30.27;;
41952;SDS011;63613;28.200;112.870;2024-02-26T01:51:47;40.45;;;30.67;;
41952;SDS011;63613;28.200;112.870;2024-02-26T01:54:16;44.70;;;31.38;;
41952;SDS011;63613;28.200;112.870;2024-02-26T01:56:45;41.90;;;29.25;;
41952;SDS011;63613;28.200;112.870;2024-02-26T01:59:13;42.17;;;31.02;;
41952;SDS011;63613;28.200;112.870;2024-02-26T02:01:44;41.15;;;30.20;;
41952;SDS011;63613;28.200;112.870;2024-02-26T02:04:17;43.28;;;30.95;;
41952;SDS011;63613;28.200;112.870;2024-02-26T02:06:45;38.83;;;29.23;;
41952;SDS011;63613;28.200;112.870;2024-02-26T02:09:14;42.85;;;32.15;;
41952;SDS011;63613;28.200;112.870;2024-02-26T02:11:43;44.10;;;32.10;;
41952;SDS011;63613;28.200;112.870;2024-02-26T02:14:12;42.17;;;30.85;;
41952;SDS011;63613;28.200;112.870;2024-02-26T02:16:41;42.70;;;29.90;;
41952;SDS011;63613;28.200;112.870;2024-02-26T02:19:10;43.78;;;31.02;;
41952;SDS011;63613;28.200;112.870;2024-02-26T02:21:39;41.10;;;30.98;;
41952;SDS011;63613;28.200;112.870;2024-02-26T02:24:07;41.03;;;30.48;;
41952;SDS011;63613;28.200;112.870;2024-02-26T02:26:36;42.25;;;30.38;;
41952;SDS011;63613;28.200;112.870;2024-02-26T02:29:06;44.08;;;31.95;;
41952;SDS011;63613;28.200;112.870;2024-02-26T02:31:35;40.85;;;30.30;;
41952;SDS011;63613;28.200;112.870;2024-02-26T02:34:04;41.05;;;30.35;;
41952;SDS011;63613;28.200;112.870;2024-02-26T02:36:33;42.28;;;31.40;;
41952;SDS011;63613;28.200;112.870;2024-02-26T02:39:01;44.25;;;31.95;;
41952;SDS011;63613;28.200;112.870;2024-02-26T02:41:32;43.03;;;32.13;;
41952;SDS011;63613;28.200;112.870;2024-02-26T02:44:01;44.53;;;32.20;;
41952;SDS011;63613;28.200;112.870;2024-02-26T02:46:29;45.58;;;32.00;;
41952;SDS011;63613;28.200;112.870;2024-02-26T02:48:59;43.42;;;31.30;;
41952;SDS011;63613;28.200;112.870;2024-02-26T02:51:29;41.30;;;30.38;;
41952;SDS011;63613;28.200;112.870;2024-02-26T02:53:59;44.28;;;32.72;;
41952;SDS011;63613;28.200;112.870;2024-02-26T02:56:27;46.03;;;31.40;;
41952;SDS011;63613;28.200;112.870;2024-02-26T02:58:56;42.60;;;32.17;;
41952;SDS011;63613;28.200;112.870;2024-02-26T03:01:25;45.45;;;32.78;;
41952;SDS011;63613;28.200;112.870;2024-02-26T03:03:53;44.30;;;32.20;;
41952;SDS011;63613;28.200;112.870;2024-02-26T03:06:23;41.08;;;31.23;;
41952;SDS011;63613;28.200;112.870;2024-02-26T03:08:54;45.47;;;31.50;;
41952;SDS011;63613;28.200;112.870;2024-02-26T03:11:23;43.38;;;32.13;;
41952;SDS011;63613;28.200;112.870;2024-02-26T03:13:52;42.90;;;31.35;;
41952;SDS011;63613;28.200;112.870;2024-02-26T03:16:21;43.88;;;32.92;;
41952;SDS011;63613;28.200;112.870;2024-02-26T03:18:51;42.85;;;33.08;;
41952;SDS011;63613;28.200;112.870;2024-02-26T03:21:20;43.33;;;32.17;;
41952;SDS011;63613;28.200;112.870;2024-02-26T03:23:49;43.92;;;32.78;;
41952;SDS011;63613;28.200;112.870;2024-02-26T03:26:18;45.20;;;32.75;;
41952;SDS011;63613;28.200;112.870;2024-02-26T03:28:47;44.42;;;32.53;;
41952;SDS011;63613;28.200;112.870;2024-02-26T03:31:17;43.90;;;32.10;;
41952;SDS011;63613;28.200;112.870;2024-02-26T03:33:47;42.65;;;31.15;;
41952;SDS011;63613;28.200;112.870;2024-02-26T03:36:16;43.08;;;30.85;;
41952;SDS011;63613;28.200;112.870;2024-02-26T03:38:45;42.47;;;32.47;;
41952;SDS011;63613;28.200;112.870;2024-02-26T03:41:14;45.10;;;33.63;;
41952;SDS011;63613;28.200;112.870;2024-02-26T03:43:44;45.92;;;33.00;;
41952;SDS011;63613;28.200;112.870;2024-02-26T03:46:13;46.00;;;32.65;;
41952;SDS011;63613;28.200;112.870;2024-02-26T03:48:42;47.95;;;33.28;;
41952;SDS011;63613;28.200;112.870;2024-02-26T03:51:11;47.60;;;34.13;;
41952;SDS011;63613;28.200;112.870;2024-02-26T03:53:39;43.35;;;31.60;;
41952;SDS011;63613;28.200;112.870;2024-02-26T03:56:11;43.38;;;32.13;;
41952;SDS011;63613;28.200;112.870;2024-02-26T03:58:39;49.53;;;34.40;;
41952;SDS011;63613;28.200;112.870;2024-02-26T04:01:08;49.97;;;34.25;;
41952;SDS011;63613;28.200;112.870;2024-02-26T04:03:37;63.72;;;37.75;;
41952;SDS011;63613;28.200;112.870;2024-02-26T04:06:08;55.83;;;35.42;;
41952;SDS011;63613;28.200;112.870;2024-02-26T04:08:38;59.95;;;36.10;;
41952;SDS011;63613;28.200;112.870;2024-02-26T04:11:07;57.95;;;35.85;;
41952;SDS011;63613;28.200;112.870;2024-02-26T04:13:36;66.35;;;38.58;;
41952;SDS011;63613;28.200;112.870;2024-02-26T04:16:05;62.50;;;38.28;;
41952;SDS011;63613;28.200;112.870;2024-02-26T04:18:40;62.55;;;39.85;;
41952;SDS011;63613;28.200;112.870;2024-02-26T04:21:08;64.15;;;38.90;;
41952;SDS011;63613;28.200;112.870;2024-02-26T04:23:37;68.43;;;40.85;;
41952;SDS011;63613;28.200;112.870;2024-02-26T04:26:06;62.50;;;38.85;;
41952;SDS011;63613;28.200;112.870;2024-02-26T04:28:34;70.53;;;40.97;;
41952;SDS011;63613;28.200;112.870;2024-02-26T04:31:04;66.63;;;38.55;;
41952;SDS011;63613;28.200;112.870;2024-02-26T04:33:34;66.65;;;38.88;;
41952;SDS011;63613;28.200;112.870;2024-02-26T04:36:03;62.17;;;40.05;;
41952;SDS011;63613;28.200;112.870;2024-02-26T04:38:33;68.38;;;41.53;;
41952;SDS011;63613;28.200;112.870;2024-02-26T04:41:01;62.25;;;39.30;;
41952;SDS011;63613;28.200;112.870;2024-02-26T04:43:31;68.40;;;40.72;;
41952;SDS011;63613;28.200;112.870;2024-02-26T04:46:00;66.25;;;39.10;;
41952;SDS011;63613;28.200;112.870;2024-02-26T04:48:29;62.50;;;38.83;;
41952;SDS011;63613;28.200;112.870;2024-02-26T04:50:58;63.50;;;38.83;;
41952;SDS011;63613;28.200;112.870;2024-02-26T04:53:28;65.68;;;40.10;;
41952;SDS011;63613;28.200;112.870;2024-02-26T04:55:58;63.55;;;39.55;;
41952;SDS011;63613;28.200;112.870;2024-02-26T04:58:26;62.53;;;38.58;;
41952;SDS011;63613;28.200;112.870;2024-02-26T05:00:55;60.72;;;37.70;;
41952;SDS011;63613;28.200;112.870;2024-02-26T05:03:24;60.13;;;37.08;;
41952;SDS011;63613;28.200;112.870;2024-02-26T05:05:52;62.08;;;38.60;;
41952;SDS011;63613;28.200;112.870;2024-02-26T05:08:25;61.47;;;38.65;;
41952;SDS011;63613;28.200;112.870;2024-02-26T05:10:55;60.28;;;36.67;;
41952;SDS011;63613;28.200;112.870;2024-02-26T05:13:23;59.80;;;38.60;;
41952;SDS011;63613;28.200;112.870;2024-02-26T05:15:52;61.97;;;38.13;;
41952;SDS011;63613;28.200;112.870;2024-02-26T05:18:22;65.82;;;39.40;;
41952;SDS011;63613;28.200;112.870;2024-02-26T05:20:52;62.00;;;38.30;;
41952;SDS011;63613;28.200;112.870;2024-02-26T05:23:20;61.55;;;39.00;;
41952;SDS011;63613;28.200;112.870;2024-02-26T05:25:49;61.33;;;38.50;;
41952;SDS011;63613;28.200;112.870;2024-02-26T05:28:18;59.33;;;37.65;;
41952;SDS011;63613;28.200;112.870;2024-02-26T05:30:46;57.58;;;37.30;;
41952;SDS011;63613;28.200;112.870;2024-02-26T05:33:17;56.65;;;37.20;;
41952;SDS011;63613;28.200;112.870;2024-02-26T05:35:45;61.85;;;38.85;;
41952;SDS011;63613;28.200;112.870;2024-02-26T05:38:14;56.22;;;36.60;;
41952;SDS011;63613;28.200;112.870;2024-02-26T05:40:43;58.80;;;37.95;;
41952;SDS011;63613;28.200;112.870;2024-02-26T05:43:12;59.20;;;38.05;;
41952;SDS011;63613;28.200;112.870;2024-02-26T05:45:44;60.38;;;38.78;;
41952;SDS011;63613;28.200;112.870;2024-02-26T05:48:13;55.88;;;37.47;;
41952;SDS011;63613;28.200;112.870;2024-02-26T05:50:41;57.03;;;37.70;;
41952;SDS011;63613;28.200;112.870;2024-02-26T05:53:10;56.10;;;35.97;;
41952;SDS011;63613;28.200;112.870;2024-02-26T05:55:39;58.80;;;35.42;;
41952;SDS011;63613;28.200;112.870;2024-02-26T05:58:09;56.30;;;36.42;;
41952;SDS011;63613;28.200;112.870;2024-02-26T06:00:38;57.67;;;37.13;;
41952;SDS011;63613;28.200;112.870;2024-02-26T06:03:07;58.58;;;38.00;;
41952;SDS011;63613;28.200;112.870;2024-02-26T06:05:35;59.85;;;38.05;;
41952;SDS011;63613;28.200;112.870;2024-02-26T06:08:04;58.40;;;38.38;;
41952;SDS011;63613;28.200;112.870;2024-02-26T06:10:34;57.00;;;36.97;;
41952;SDS011;63613;28.200;112.870;2024-02-26T06:13:05;57.72;;;35.88;;
41952;SDS011;63613;28.200;112.870;2024-02-26T06:15:34;56.05;;;36.40;;
41952;SDS011;63613;28.200;112.870;2024-02-26T06:18:02;55.78;;;38.10;;
41952;SDS011;63613;28.200;112.870;2024-02-26T06:20:31;57.92;;;38.90;;
41952;SDS011;63613;28.200;112.870;2024-02-26T06:23:01;54.22;;;35.45;;
41952;SDS011;63613;28.200;112.870;2024-02-26T06:25:29;52.08;;;36.17;;
41952;SDS011;63613;28.200;112.870;2024-02-26T06:27:58;56.83;;;36.33;;
41952;SDS011;63613;28.200;112.870;2024-02-26T06:30:27;52.78;;;34.90;;
41952;SDS011;63613;28.200;112.870;2024-02-26T06:32:55;55.47;;;37.83;;
41952;SDS011;63613;28.200;112.870;2024-02-26T06:35:25;54.17;;;36.00;;
41952;SDS011;63613;28.200;112.870;2024-02-26T06:37:54;58.42;;;37.03;;
41952;SDS011;63613;28.200;112.870;2024-02-26T06:40:22;50.38;;;35.33;;
41952;SDS011;63613;28.200;112.870;2024-02-26T06:42:51;56.10;;;37.85;;
41952;SDS011;63613;28.200;112.870;2024-02-26T06:45:20;58.83;;;38.28;;
41952;SDS011;63613;28.200;112.870;2024-02-26T06:47:50;57.65;;;37.60;;
41952;SDS011;63613;28.200;112.870;2024-02-26T06:50:18;57.42;;;36.35;;
41952;SDS011;63613;28.200;112.870;2024-02-26T06:52:47;53.58;;;36.95;;
41952;SDS011;63613;28.200;112.870;2024-02-26T06:55:17;57.47;;;37.45;;
41952;SDS011;63613;28.200;112.870;2024-02-26T06:57:47;52.33;;;35.50;;
41952;SDS011;63613;28.200;112.870;2024-02-26T07:00:18;54.88;;;36.53;;
41952;SDS011;63613;28.200;112.870;2024-02-26T07:02:46;49.65;;;34.33;;
41952;SDS011;63613;28.200;112.870;2024-02-26T07:05:15;55.50;;;36.28;;
41952;SDS011;63613;28.200;112.870;2024-02-26T07:07:44;51.95;;;34.17;;
41952;SDS011;63613;28.200;112.870;2024-02-26T07:10:12;49.47;;;34.75;;
41952;SDS011;63613;28.200;112.870;2024-02-26T07:12:42;51.78;;;36.17;;
41952;SDS011;63613;28.200;112.870;2024-02-26T07:15:10;54.97;;;36.67;;
41952;SDS011;63613;28.200;112.870;2024-02-26T07:17:39;51.53;;;35.50;;
41952;SDS011;63613;28.200;112.870;2024-02-26T07:20:13;49.10;;;34.42;;
41952;SDS011;63613;28.200;112.870;2024-02-26T07:22:46;53.45;;;34.63;;
41952;SDS011;63613;28.200;112.870;2024-02-26T07:25:14;50.50;;;35.53;;
41952;SDS011;63613;28.200;112.870;2024-02-26T07:27:43;56.53;;;37.15;;
41952;SDS011;63613;28.200;112.870;2024-02-26T07:30:12;51.67;;;35.28;;
41952;SDS011;63613;28.200;112.870;2024-02-26T07:32:43;49.97;;;33.35;;
41952;SDS011;63613;28.200;112.870;2024-02-26T07:35:13;50.35;;;35.83;;
41952;SDS011;63613;28.200;112.870;2024-02-26T07:37:43;50.17;;;33.97;;
41952;SDS011;63613;28.200;112.870;2024-02-26T07:40:16;55.80;;;35.15;;
41952;SDS011;63613;28.200;112.870;2024-02-26T07:42:44;51.38;;;35.20;;
41952;SDS011;63613;28.200;112.870;2024-02-26T07:45:13;53.10;;;35.65;;
41952;SDS011;63613;28.200;112.870;2024-02-26T07:47:46;52.38;;;35.53;;
41952;SDS011;63613;28.200;112.870;2024-02-26T07:50:15;52.70;;;34.90;;
41952;SDS011;63613;28.200;112.870;2024-02-26T07:52:44;52.60;;;35.58;;
41952;SDS011;63613;28.200;112.870;2024-02-26T07:55:13;51.50;;;35.92;;
41952;SDS011;63613;28.200;112.870;2024-02-26T07:57:42;53.78;;;34.45;;
41952;SDS011;63613;28.200;112.870;2024-02-26T08:00:11;51.80;;;35.22;;
41952;SDS011;63613;28.200;112.870;2024-02-26T08:02:43;51.75;;;34.53;;
41952;SDS011;63613;28.200;112.870;2024-02-26T08:05:11;50.95;;;35.17;;
41952;SDS011;63613;28.200;112.870;2024-02-26T08:07:40;49.65;;;33.92;;
41952;SDS011;63613;28.200;112.870;2024-02-26T08:10:09;52.53;;;34.95;;
41952;SDS011;63613;28.200;112.870;2024-02-26T08:12:38;50.55;;;34.92;;
41952;SDS011;63613;28.200;112.870;2024-02-26T08:15:07;51.00;;;34.70;;
41952;SDS011;63613;28.200;112.870;2024-02-26T08:17:37;49.92;;;32.90;;
41952;SDS011;63613;28.200;112.870;2024-02-26T08:20:06;52.63;;;33.88;;
41952;SDS011;63613;28.200;112.870;2024-02-26T08:22:36;49.78;;;33.38;;
41952;SDS011;63613;28.200;112.870;2024-02-26T08:25:05;49.40;;;34.13;;
41952;SDS011;63613;28.200;112.870;2024-02-26T08:27:35;51.28;;;33.47;;
41952;SDS011;63613;28.200;112.870;2024-02-26T08:30:04;48.13;;;33.15;;
41952;SDS011;63613;28.200;112.870;2024-02-26T08:32:33;49.47;;;33.83;;
41952;SDS011;63613;28.200;112.870;2024-02-26T08:35:04;51.92;;;33.35;;
41952;SDS011;63613;28.200;112.870;2024-02-26T08:37:33;51.40;;;34.78;;
41952;SDS011;63613;28.200;112.870;2024-02-26T08:40:01;51.30;;;33.72;;
41952;SDS011;63613;28.200;112.870;2024-02-26T08:42:30;46.25;;;32.45;;
41952;SDS011;63613;28.200;112.870;2024-02-26T08:44:59;50.60;;;33.70;;
41952;SDS011;63613;28.200;112.870;2024-02-26T08:47:30;48.08;;;34.05;;
41952;SDS011;63613;28.200;112.870;2024-02-26T08:49:59;63.20;;;41.53;;
41952;SDS011;63613;28.200;112.870;2024-02-26T08:52:28;63.40;;;42.83;;
41952;SDS011;63613;28.200;112.870;2024-02-26T08:54:56;66.53;;;42.10;;
41952;SDS011;63613;28.200;112.870;2024-02-26T08:57:26;67.05;;;41.97;;
41952;SDS011;63613;28.200;112.870;2024-02-26T08:59:56;66.28;;;43.05;;
41952;SDS011;63613;28.200;112.870;2024-02-26T09:02:26;66.22;;;43.03;;
41952;SDS011;63613;28.200;112.870;2024-02-26T09:04:55;71.75;;;43.63;;
41952;SDS011;63613;28.200;112.870;2024-02-26T09:07:23;70.63;;;43.53;;
41952;SDS011;63613;28.200;112.870;2024-02-26T09:09:52;70.80;;;43.08;;
41952;SDS011;63613;28.200;112.870;2024-02-26T09:12:22;69.28;;;41.92;;
41952;SDS011;63613;28.200;112.870;2024-02-26T09:14:51;68.25;;;42.97;;
41952;SDS011;63613;28.200;112.870;2024-02-26T09:17:22;68.50;;;42.83;;
41952;SDS011;63613;28.200;112.870;2024-02-26T09:19:50;74.20;;;43.67;;
41952;SDS011;63613;28.200;112.870;2024-02-26T09:22:19;69.85;;;42.30;;
41952;SDS011;63613;28.200;112.870;2024-02-26T09:24:52;68.70;;;42.85;;
41952;SDS011;63613;28.200;112.870;2024-02-26T09:27:21;68.95;;;42.72;;
41952;SDS011;63613;28.200;112.870;2024-02-26T09:29:49;67.63;;;41.30;;
41952;SDS011;63613;28.200;112.870;2024-02-26T09:32:18;70.60;;;43.33;;
41952;SDS011;63613;28.200;112.870;2024-02-26T09:34:47;72.07;;;44.38;;
41952;SDS011;63613;28.200;112.870;2024-02-26T09:37:16;76.18;;;47.20;;
41952;SDS011;63613;28.200;112.870;2024-02-26T09:39:45;70.97;;;42.30;;
41952;SDS011;63613;28.200;112.870;2024-02-26T09:42:13;70.25;;;44.55;;
41952;SDS011;63613;28.200;112.870;2024-02-26T09:44:45;75.82;;;45.97;;
41952;SDS011;63613;28.200;112.870;2024-02-26T09:47:18;76.18;;;44.30;;
41952;SDS011;63613;28.200;112.870;2024-02-26T09:49:47;74.15;;;45.20;;
41952;SDS011;63613;28.200;112.870;2024-02-26T09:52:17;72.43;;;42.90;;
41952;SDS011;63613;28.200;112.870;2024-02-26T09:54:47;71.72;;;43.60;;
41952;SDS011;63613;28.200;112.870;2024-02-26T09:57:18;73.85;;;44.90;;
41952;SDS011;63613;28.200;112.870;2024-02-26T09:59:51;71.80;;;44.80;;
41952;SDS011;63613;28.200;112.870;2024-02-26T10:02:29;72.05;;;43.17;;
41952;SDS011;63613;28.200;112.870;2024-02-26T10:05:00;75.45;;;44.75;;
41952;SDS011;63613;28.200;112.870;2024-02-26T10:07:33;68.55;;;43.47;;
41952;SDS011;63613;28.200;112.870;2024-02-26T10:10:02;67.57;;;42.50;;
41952;SDS011;63613;28.200;112.870;2024-02-26T10:12:32;68.15;;;43.47;;
41952;SDS011;63613;28.200;112.870;2024-02-26T10:15:01;70.25;;;43.63;;
41952;SDS011;63613;28.200;112.870;2024-02-26T10:17:30;67.72;;;41.60;;
41952;SDS011;63613;28.200;112.870;2024-02-26T10:20:11;69.05;;;41.38;;
41952;SDS011;63613;28.200;112.870;2024-02-26T10:22:42;64.10;;;40.15;;
41952;SDS011;63613;28.200;112.870;2024-02-26T10:25:11;67.85;;;41.92;;
41952;SDS011;63613;28.200;112.870;2024-02-26T10:27:41;66.38;;;41.10;;
41952;SDS011;63613;28.200;112.870;2024-02-26T10:30:16;59.67;;;39.15;;
41952;SDS011;63613;28.200;112.870;2024-02-26T10:32:48;58.63;;;37.38;;
41952;SDS011;63613;28.200;112.870;2024-02-26T10:35:18;60.05;;;37.28;;
41952;SDS011;63613;28.200;112.870;2024-02-26T10:37:47;56.08;;;36.40;;
41952;SDS011;63613;28.200;112.870;2024-02-26T10:40:18;58.67;;;37.10;;
41952;SDS011;63613;28.200;112.870;2024-02-26T10:42:47;55.90;;;35.90;;
41952;SDS011;63613;28.200;112.870;2024-02-26T10:45:15;59.65;;;35.85;;
41952;SDS011;63613;28.200;112.870;2024-02-26T10:47:44;59.85;;;36.38;;
41952;SDS011;63613;28.200;112.870;2024-02-26T10:50:14;56.10;;;36.10;;
41952;SDS011;63613;28.200;112.870;2024-02-26T10:52:44;58.60;;;37.40;;
41952;SDS011;63613;28.200;112.870;2024-02-26T10:55:15;58.35;;;38.20;;
41952;SDS011;63613;28.200;112.870;2024-02-26T10:57:45;55.83;;;35.65;;
41952;SDS011;63613;28.200;112.870;2024-02-26T11:00:16;53.13;;;35.72;;
41952;SDS011;63613;28.200;112.870;2024-02-26T11:02:46;53.78;;;35.33;;
41952;SDS011;63613;28.200;112.870;2024-02-26T11:05:16;50.67;;;34.22;;
41952;SDS011;63613;28.200;112.870;2024-02-26T11:07:46;49.92;;;32.75;;
41952;SDS011;63613;28.200;112.870;2024-02-26T11:10:16;48.53;;;32.35;;
41952;SDS011;63613;28.200;112.870;2024-02-26T11:12:45;48.22;;;31.15;;
41952;SDS011;63613;28.200;112.870;2024-02-26T11:15:16;45.00;;;30.83;;
41952;SDS011;63613;28.200;112.870;2024-02-26T11:17:46;45.63;;;30.48;;
41952;SDS011;63613;28.200;112.870;2024-02-26T11:20:16;43.55;;;28.63;;
41952;SDS011;63613;28.200;112.870;2024-02-26T11:22:47;44.13;;;29.90;;
41952;SDS011;63613;28.200;112.870;2024-02-26T11:25:17;46.45;;;30.33;;
41952;SDS011;63613;28.200;112.870;2024-02-26T11:27:48;49.75;;;32.15;;
41952;SDS011;63613;28.200;112.870;2024-02-26T11:30:30;54.42;;;31.45;;
41952;SDS011;63613;28.200;112.870;2024-02-26T11:33:01;55.63;;;33.25;;
41952;SDS011;63613;28.200;112.870;2024-02-26T11:35:31;50.47;;;32.70;;
41952;SDS011;63613;28.200;112.870;2024-02-26T11:38:01;58.45;;;30.70;;
41952;SDS011;63613;28.200;112.870;2024-02-26T11:40:31;57.15;;;32.88;;
41952;SDS011;63613;28.200;112.870;2024-02-26T11:43:07;51.58;;;30.17;;
41952;SDS011;63613;28.200;112.870;2024-02-26T11:45:48;54.13;;;32.75;;
41952;SDS011;63613;28.200;112.870;2024-02-26T11:48:22;50.38;;;28.73;;
41952;SDS011;63613;28.200;112.870;2024-02-26T11:50:53;45.35;;;27.77;;
41952;SDS011;63613;28.200;112.870;2024-02-26T11:53:27;44.45;;;29.08;;
41952;SDS011;63613;28.200;112.870;2024-02-26T11:56:13;47.38;;;28.42;;
41952;SDS011;63613;28.200;112.870;2024-02-26T11:58:57;43.47;;;27.58;;
41952;SDS011;63613;28.200;112.870;2024-02-26T12:01:38;43.90;;;26.38;;
41952;SDS011;63613;28.200;112.870;2024-02-26T12:04:12;45.38;;;25.75;;
41952;SDS011;63613;28.200;112.870;2024-02-26T12:06:48;43.22;;;27.00;;
41952;SDS011;63613;28.200;112.870;2024-02-26T12:09:30;41.17;;;25.52;;
41952;SDS011;63613;28.200;112.870;2024-02-26T12:12:03;39.13;;;24.98;;
41952;SDS011;63613;28.200;112.870;2024-02-26T12:14:34;38.60;;;23.88;;
41952;SDS011;63613;28.200;112.870;2024-02-26T12:17:07;42.63;;;25.73;;
41952;SDS011;63613;28.200;112.870;2024-02-26T12:19:46;35.95;;;23.70;;
41952;SDS011;63613;28.200;112.870;2024-02-26T12:22:16;35.83;;;23.33;;
41952;SDS011;63613;28.200;112.870;2024-02-26T12:24:45;38.65;;;24.35;;
41952;SDS011;63613;28.200;112.870;2024-02-26T12:27:15;36.78;;;23.98;;
41952;SDS011;63613;28.200;112.870;2024-02-26T12:29:44;35.72;;;23.15;;
41952;SDS011;63613;28.200;112.870;2024-02-26T12:32:14;36.05;;;21.58;;
41952;SDS011;63613;28.200;112.870;2024-02-26T12:34:43;32.47;;;21.52;;
41952;SDS011;63613;28.200;112.870;2024-02-26T12:37:12;34.35;;;22.45;;
41952;SDS011;63613;28.200;112.870;2024-02-26T12:39:43;33.97;;;22.92;;
41952;SDS011;63613;28.200;112.870;2024-02-26T12:42:12;32.38;;;19.90;;
41952;SDS011;63613;28.200;112.870;2024-02-26T12:44:41;33.70;;;21.45;;
41952;SDS011;63613;28.200;112.870;2024-02-26T12:47:11;36.15;;;22.02;;
41952;SDS011;63613;28.200;112.870;2024-02-26T12:49:42;33.38;;;22.25;;
41952;SDS011;63613;28.200;112.870;2024-02-26T12:52:14;33.78;;;23.02;;
41952;SDS011;63613;28.200;112.870;2024-02-26T12:54:44;38.58;;;25.02;;
41952;SDS011;63613;28.200;112.870;2024-02-26T12:57:13;35.83;;;22.50;;
41952;SDS011;63613;28.200;112.870;2024-02-26T12:59:42;36.78;;;23.20;;
41952;SDS011;63613;28.200;112.870;2024-02-26T13:02:12;35.78;;;23.60;;
41952;SDS011;63613;28.200;112.870;2024-02-26T13:04:41;37.38;;;23.40;;
41952;SDS011;63613;28.200;112.870;2024-02-26T13:07:10;35.92;;;24.33;;
41952;SDS011;63613;28.200;112.870;2024-02-26T13:09:39;35.53;;;24.30;;
41952;SDS011;63613;28.200;112.870;2024-02-26T13:12:08;35.10;;;23.80;;
41952;SDS011;63613;28.200;112.870;2024-02-26T13:14:40;37.28;;;24.67;;
41952;SDS011;63613;28.200;112.870;2024-02-26T13:17:08;37.22;;;23.50;;
41952;SDS011;63613;28.200;112.870;2024-02-26T13:19:37;40.05;;;25.70;;
41952;SDS011;63613;28.200;112.870;2024-02-26T13:22:16;38.55;;;25.42;;
41952;SDS011;63613;28.200;112.870;2024-02-26T13:24:54;39.58;;;24.58;;
41952;SDS011;63613;28.200;112.870;2024-02-26T13:27:24;32.53;;;23.63;;
41952;SDS011;63613;28.200;112.870;2024-02-26T13:30:03;35.28;;;23.17;;
41952;SDS011;63613;28.200;112.870;2024-02-26T13:32:38;37.08;;;24.60;;
41952;SDS011;63613;28.200;112.870;2024-02-26T13:35:11;38.17;;;24.35;;
41952;SDS011;63613;28.200;112.870;2024-02-26T13:37:40;38.60;;;24.85;;
41952;SDS011;63613;28.200;112.870;2024-02-26T13:40:09;39.03;;;26.02;;
41952;SDS011;63613;28.200;112.870;2024-02-26T13:42:39;35.13;;;23.38;;
41952;SDS011;63613;28.200;112.870;2024-02-26T13:45:07;34.60;;;23.35;;
41952;SDS011;63613;28.200;112.870;2024-02-26T13:47:37;35.60;;;23.63;;
41952;SDS011;63613;28.200;112.870;2024-02-26T13:50:07;32.33;;;22.75;;
41952;SDS011;63613;28.200;112.870;2024-02-26T13:52:36;34.78;;;22.83;;
41952;SDS011;63613;28.200;112.870;2024-02-26T13:55:05;35.83;;;24.40;;
41952;SDS011;63613;28.200;112.870;2024-02-26T13:57:34;35.05;;;23.73;;
41952;SDS011;63613;28.200;112.870;2024-02-26T14:00:06;35.13;;;24.60;;
41952;SDS011;63613;28.200;112.870;2024-02-26T14:02:36;38.47;;;24.38;;
41952;SDS011;63613;28.200;112.870;2024-02-26T14:05:05;34.97;;;23.98;;
41952;SDS011;63613;28.200;112.870;2024-02-26T14:07:34;37.55;;;25.63;;
41952;SDS011;63613;28.200;112.870;2024-02-26T14:10:03;32.38;;;23.45;;
41952;SDS011;63613;28.200;112.870;2024-02-26T14:12:34;36.28;;;25.10;;